createdAt,value
2023-01-06T00:01:11.560Z,7.96
2023-01-06T00:03:38.669Z,7.91
2023-01-06T00:06:07.070Z,7.84
2023-01-06T00:08:35.211Z,8.25
2023-01-06T00:11:13.008Z,8.71
2023-01-06T00:13:40.355Z,8.78
2023-01-06T00:16:10.562Z,8.58
2023-01-06T00:18:37.461Z,8.20
2023-01-06T00:21:04.672Z,7.98
2023-01-06T00:23:31.827Z,7.72
2023-01-06T00:25:58.644Z,8.15
2023-01-06T00:28:25.613Z,8.63
2023-01-06T00:30:53.078Z,8.66
2023-01-06T00:33:20.153Z,8.48
2023-01-06T00:35:47.293Z,8.17
2023-01-06T00:38:14.335Z,7.98
2023-01-06T00:40:41.181Z,7.78
2023-01-06T00:43:08.469Z,7.57
2023-01-06T00:45:35.460Z,8.03
2023-01-06T00:48:02.387Z,8.49
2023-01-06T00:50:29.501Z,8.49
2023-01-06T00:52:56.841Z,8.20
2023-01-06T00:55:24.152Z,7.95
2023-01-06T00:57:52.807Z,7.75
2023-01-06T01:00:20.301Z,7.57
2023-01-06T01:02:47.366Z,7.98
2023-01-06T01:05:14.554Z,8.53
2023-01-06T01:07:42.620Z,8.54
2023-01-06T01:10:10.255Z,8.32
2023-01-06T01:12:37.777Z,8.10
2023-01-06T01:15:05.990Z,7.80
2023-01-06T01:17:33.304Z,7.62
2023-01-06T01:20:01.312Z,7.38
2023-01-06T01:22:30.127Z,7.77
2023-01-06T01:24:57.254Z,8.33
2023-01-06T01:27:26.073Z,8.41
2023-01-06T01:29:52.949Z,8.23
2023-01-06T01:32:19.888Z,7.99
2023-01-06T01:34:46.759Z,7.75
2023-01-06T01:37:14.298Z,7.52
2023-01-06T01:39:41.994Z,7.30
2023-01-06T01:42:17.976Z,7.82
2023-01-06T01:45:07.171Z,8.39
2023-01-06T01:47:50.196Z,8.37
2023-01-06T01:50:17.126Z,7.80
2023-01-06T01:52:45.071Z,7.49
2023-01-06T01:55:12.010Z,7.09
2023-01-06T01:57:52.014Z,6.85
2023-01-06T02:00:18.962Z,6.66
2023-01-06T02:02:45.819Z,7.28
2023-01-06T02:05:14.567Z,7.79
2023-01-06T02:07:41.622Z,7.81
2023-01-06T02:10:17.529Z,7.59
2023-01-06T02:12:45.068Z,7.30
2023-01-06T02:15:17.858Z,7.09
2023-01-06T02:18:08.098Z,6.90
2023-01-06T02:20:36.294Z,6.74
2023-01-06T02:23:10.016Z,7.31
2023-01-06T02:25:56.207Z,7.88
2023-01-06T02:28:57.622Z,7.86
2023-01-06T02:31:50.523Z,7.66
2023-01-06T02:34:54.959Z,7.34
2023-01-06T02:37:33.936Z,7.02
2023-01-06T02:40:10.746Z,6.79
2023-01-06T02:42:48.662Z,6.64
2023-01-06T02:45:15.868Z,7.25
2023-01-06T02:48:11.276Z,7.79
2023-01-06T02:50:48.007Z,7.63
2023-01-06T02:53:38.444Z,7.42
2023-01-06T02:56:05.699Z,7.10
2023-01-06T02:58:47.693Z,6.86
2023-01-06T03:01:23.751Z,6.66
2023-01-06T03:03:51.382Z,6.47
2023-01-06T03:06:22.080Z,7.01
2023-01-06T03:08:49.398Z,7.58
2023-01-06T03:11:16.953Z,7.66
2023-01-06T03:13:59.420Z,7.39
2023-01-06T03:16:26.446Z,7.14
2023-01-06T03:18:54.116Z,6.82
2023-01-06T03:21:23.681Z,6.60
2023-01-06T03:23:50.578Z,6.39
2023-01-06T03:26:18.239Z,6.84
2023-01-06T03:28:45.621Z,7.40
2023-01-06T03:31:41.143Z,7.44
2023-01-06T03:34:41.376Z,7.14
2023-01-06T03:37:58.314Z,6.88
2023-01-06T03:40:28.713Z,6.55
2023-01-06T03:43:24.441Z,6.21
2023-01-06T03:46:05.221Z,6.61
2023-01-06T03:48:56.758Z,6.70
2023-01-06T03:51:49.786Z,6.60
2023-01-06T03:54:20.613Z,6.24
2023-01-06T03:56:54.924Z,6.08
2023-01-06T03:59:26.807Z,5.90
2023-01-06T04:01:54.382Z,6.32
2023-01-06T04:04:21.495Z,6.73
2023-01-06T04:06:48.955Z,6.72
2023-01-06T04:09:16.732Z,6.39
2023-01-06T04:12:02.914Z,6.13
2023-01-06T04:14:30.768Z,5.80
2023-01-06T04:16:58.701Z,5.55
2023-01-06T04:19:27.852Z,5.93
2023-01-06T04:21:55.221Z,6.32
2023-01-06T04:24:23.584Z,6.30
2023-01-06T04:26:50.732Z,6.02
2023-01-06T04:29:17.693Z,5.72
2023-01-06T04:31:45.011Z,5.56
2023-01-06T04:34:11.984Z,5.33
2023-01-06T04:36:39.258Z,5.78
2023-01-06T04:39:06.774Z,6.22
2023-01-06T04:41:34.029Z,6.19
2023-01-06T04:44:02.860Z,6.02
2023-01-06T04:46:29.985Z,5.88
2023-01-06T04:48:56.826Z,5.66
2023-01-06T04:51:23.889Z,5.48
2023-01-06T04:53:50.709Z,5.23
2023-01-06T04:56:17.753Z,5.52
2023-01-06T04:58:44.791Z,5.92
2023-01-06T05:01:12.399Z,5.77
2023-01-06T05:03:39.973Z,5.51
2023-01-06T05:06:11.955Z,5.25
2023-01-06T05:08:39.731Z,5.01
2023-01-06T05:11:27.193Z,4.77
2023-01-06T05:13:54.924Z,5.31
2023-01-06T05:16:26.277Z,5.63
2023-01-06T05:18:53.901Z,5.58
2023-01-06T05:21:21.682Z,5.37
2023-01-06T05:23:48.589Z,5.17
2023-01-06T05:26:18.340Z,4.91
2023-01-06T05:28:45.597Z,4.63
2023-01-06T05:31:12.620Z,5.02
2023-01-06T05:33:42.730Z,5.46
2023-01-06T05:36:11.996Z,5.49
2023-01-06T05:38:39.024Z,5.23
2023-01-06T05:41:06.067Z,5.05
2023-01-06T05:43:34.020Z,4.83
2023-01-06T05:46:05.318Z,4.64
2023-01-06T05:48:33.413Z,4.49
2023-01-06T05:51:02.436Z,4.96
2023-01-06T05:53:32.069Z,5.57
2023-01-06T05:56:03.503Z,5.67
2023-01-06T05:58:33.035Z,5.44
2023-01-06T06:01:03.803Z,5.18
2023-01-06T06:03:31.702Z,4.96
2023-01-06T06:06:05.827Z,4.71
2023-01-06T06:08:32.979Z,4.46
2023-01-06T06:11:04.432Z,4.92
2023-01-06T06:13:32.056Z,5.51
2023-01-06T06:16:05.129Z,5.50
2023-01-06T06:18:32.382Z,5.34
2023-01-06T06:21:03.502Z,5.15
2023-01-06T06:23:33.374Z,4.91
2023-01-06T06:26:00.752Z,4.75
2023-01-06T06:28:29.732Z,4.60
2023-01-06T06:31:02.886Z,4.62
2023-01-06T06:33:29.903Z,5.36
2023-01-06T06:35:58.028Z,5.94
2023-01-06T06:38:25.072Z,6.03
2023-01-06T06:40:52.082Z,5.85
2023-01-06T06:43:19.064Z,5.50
2023-01-06T06:45:46.863Z,5.24
2023-01-06T06:48:14.999Z,5.08
2023-01-06T06:50:42.000Z,4.83
2023-01-06T06:53:09.041Z,5.16
2023-01-06T06:55:36.168Z,5.63
2023-01-06T06:58:03.415Z,5.64
2023-01-06T07:00:30.627Z,5.41
2023-01-06T07:02:57.521Z,5.15
2023-01-06T07:05:25.749Z,4.89
2023-01-06T09:59:50.576Z,2.17
2023-01-06T10:02:38.008Z,3.59
2023-01-06T10:05:22.695Z,4.67
2023-01-06T10:07:54.826Z,4.85
2023-01-06T10:10:49.731Z,4.86
2023-01-06T10:13:29.937Z,4.72
2023-01-06T10:16:18.980Z,4.58
2023-01-06T10:18:48.846Z,5.12
2023-01-06T10:21:30.864Z,5.62
2023-01-06T10:24:25.332Z,5.63
2023-01-06T10:26:59.806Z,5.40
2023-01-06T10:29:32.820Z,5.13
2023-01-06T10:32:00.044Z,4.94
2023-01-06T10:34:28.165Z,4.78
2023-01-06T10:36:57.280Z,5.30
2023-01-06T10:39:25.438Z,5.91
2023-01-06T10:41:52.651Z,5.90
2023-01-06T10:44:19.709Z,5.66
2023-01-06T10:46:48.938Z,5.38
2023-01-06T10:49:18.200Z,5.18
2023-01-06T10:51:51.717Z,4.94
2023-01-06T10:54:20.079Z,4.76
2023-01-06T10:56:55.587Z,5.26
2023-01-06T10:59:22.530Z,5.87
2023-01-06T11:01:51.647Z,5.95
2023-01-06T11:04:20.048Z,5.77
2023-01-06T11:07:07.336Z,5.53
2023-01-06T11:09:40.213Z,5.24
2023-01-06T11:12:12.984Z,5.02
2023-01-06T11:14:40.026Z,4.84
2023-01-06T11:17:10.187Z,5.37
2023-01-06T11:19:41.994Z,6.01
2023-01-06T11:25:23.416Z,5.87
2023-01-06T11:28:20.684Z,5.60
2023-01-06T11:31:13.737Z,5.32
2023-01-06T11:33:48.859Z,5.10
2023-01-06T11:36:15.671Z,4.93
2023-01-06T11:39:03.974Z,4.75
2023-01-06T11:41:38.238Z,5.37
2023-01-06T11:44:25.569Z,5.94
2023-01-06T11:46:57.180Z,5.93
2023-01-06T11:49:39.619Z,5.77
2023-01-06T11:52:19.891Z,5.52
2023-01-06T11:55:00.363Z,5.28
2023-01-06T11:57:27.239Z,5.08
2023-01-06T12:00:22.628Z,4.92
2023-01-06T12:02:52.049Z,4.75
2023-01-06T12:05:51.638Z,5.32
2023-01-06T12:08:28.722Z,6.04
2023-01-06T12:10:59.795Z,6.04
2023-01-06T12:13:27.647Z,5.85
2023-01-06T12:16:01.701Z,5.59
2023-01-06T12:18:31.218Z,5.33
2023-01-06T12:20:58.285Z,5.07
2023-01-06T12:23:30.316Z,4.88
2023-01-06T12:26:05.506Z,4.66
2023-01-06T12:28:42.291Z,4.52
2023-01-06T12:31:20.547Z,5.21
2023-01-06T12:33:49.049Z,5.90
2023-01-06T12:36:18.689Z,5.94
2023-01-06T12:38:55.592Z,5.77
2023-01-06T12:41:28.916Z,5.56
2023-01-06T12:44:23.820Z,5.32
2023-01-06T12:47:12.544Z,5.04
2023-01-06T12:49:54.197Z,4.80
2023-01-06T12:52:36.037Z,4.60
2023-01-06T12:55:03.367Z,5.27
2023-01-06T12:57:51.978Z,5.84
2023-01-06T13:00:51.498Z,5.88
2023-01-06T13:03:26.097Z,5.71
2023-01-06T13:06:02.338Z,5.49
2023-01-06T13:08:46.451Z,5.22
2023-01-06T13:11:25.016Z,4.99
2023-01-06T13:14:11.189Z,4.77
2023-01-06T13:16:44.206Z,4.56
2023-01-06T13:19:15.755Z,5.15
2023-01-06T13:21:43.039Z,5.80
2023-01-06T13:24:22.272Z,5.88
2023-01-06T13:26:52.428Z,5.70
2023-01-06T13:29:23.178Z,5.44
2023-01-06T13:32:27.644Z,5.19
2023-01-06T13:35:36.001Z,4.90
2023-01-06T13:38:18.392Z,4.62
2023-01-06T13:40:45.476Z,4.41
2023-01-06T13:43:20.180Z,4.91
2023-01-06T13:45:49.024Z,5.55
2023-01-06T13:48:20.159Z,5.68
2023-01-06T13:50:47.033Z,5.50
2023-01-06T13:53:17.371Z,5.28
2023-01-06T13:55:44.418Z,5.06
2023-01-06T13:58:29.136Z,4.87
2023-01-06T14:01:07.022Z,4.68
2023-01-06T14:03:36.646Z,4.55
2023-01-06T14:06:03.775Z,5.10
2023-01-06T14:08:38.004Z,5.73
2023-01-06T14:11:26.679Z,5.82
2023-01-06T14:14:01.374Z,5.61
2023-01-06T14:16:43.361Z,5.36
2023-01-06T14:19:24.004Z,5.13
2023-01-06T14:21:52.872Z,4.93
2023-01-06T14:24:25.627Z,4.74
2023-01-06T14:26:53.012Z,4.58
2023-01-06T14:29:49.049Z,4.45
2023-01-06T14:32:16.995Z,4.33
2023-01-06T14:35:01.813Z,5.06
2023-01-06T14:37:32.233Z,5.81
2023-01-06T14:39:59.075Z,5.91
2023-01-06T14:42:34.833Z,5.74
2023-01-06T14:45:05.585Z,5.46
2023-01-06T14:47:34.729Z,5.20
2023-01-06T14:50:06.511Z,4.99
2023-01-06T14:52:35.564Z,4.77
2023-01-06T14:55:03.348Z,4.60
2023-01-06T14:57:35.423Z,4.46
2023-01-06T15:00:33.448Z,4.33
2023-01-06T15:03:02.920Z,4.20
2023-01-06T15:05:33.719Z,4.09
2023-01-06T15:08:06.505Z,4.53
2023-01-06T15:10:38.226Z,5.20
2023-01-06T15:13:27.186Z,5.35
2023-01-06T15:15:57.802Z,5.18
2023-01-06T15:18:24.885Z,4.94
2023-01-06T15:20:52.539Z,4.73
2023-01-06T15:23:19.899Z,4.54
2023-01-06T15:25:48.489Z,4.38
2023-01-06T15:28:32.680Z,4.25
2023-01-06T15:31:00.432Z,4.12
2023-01-06T15:33:38.883Z,4.02
2023-01-06T15:36:06.224Z,3.91
2023-01-06T15:38:34.659Z,4.53
2023-01-06T15:41:02.306Z,5.28
2023-01-06T15:43:41.272Z,5.42
2023-01-06T15:46:10.107Z,5.25
2023-01-06T15:48:38.947Z,5.03
2023-01-06T15:51:12.219Z,4.81
2023-01-06T15:53:39.294Z,4.60
2023-01-06T15:56:06.381Z,4.41
2023-01-06T15:58:37.053Z,4.26
2023-01-06T16:01:17.316Z,4.18
2023-01-06T16:03:47.972Z,4.22
2023-01-06T19:03:57.043Z,0.80
2023-01-06T19:07:02.623Z,2.10
2023-01-06T19:09:46.146Z,3.33
2023-01-06T19:12:28.085Z,3.60
2023-01-06T19:14:55.250Z,3.51
2023-01-06T19:17:27.284Z,3.07
2023-01-06T19:19:56.091Z,2.91
2023-01-06T19:22:27.731Z,2.78
2023-01-06T19:24:57.642Z,3.29
2023-01-06T19:27:30.073Z,3.98
2023-01-06T19:30:01.589Z,4.15
2023-01-06T19:32:28.987Z,4.02
2023-01-06T19:34:56.186Z,3.82
2023-01-06T19:37:23.059Z,3.65
2023-01-06T19:39:54.820Z,3.48
2023-01-06T19:42:29.770Z,3.33
2023-01-06T19:44:58.567Z,3.84
2023-01-06T19:47:30.614Z,4.46
2023-01-06T19:50:00.895Z,4.57
2023-01-06T19:52:39.841Z,4.40
2023-01-06T19:55:26.540Z,4.13
2023-01-06T19:58:02.429Z,3.81
2023-01-06T20:00:47.840Z,3.56
2023-01-06T20:03:27.025Z,3.38
2023-01-06T20:05:53.963Z,3.99
2023-01-06T20:08:20.919Z,4.51
2023-01-06T20:10:47.810Z,4.56
2023-01-06T20:13:15.123Z,4.36
2023-01-06T20:15:42.048Z,4.13
2023-01-06T20:18:09.360Z,3.88
2023-01-06T20:20:36.659Z,3.65
2023-01-06T20:23:03.702Z,3.46
2023-01-06T20:25:30.970Z,3.31
2023-01-06T20:27:59.129Z,3.82
2023-01-06T20:30:26.419Z,4.48
2023-01-06T20:32:53.323Z,4.62
2023-01-06T20:35:21.566Z,4.46
2023-01-06T20:37:48.894Z,4.22
2023-01-06T20:40:16.122Z,3.95
2023-01-06T20:42:43.032Z,3.67
2023-01-06T20:45:10.711Z,3.40
2023-01-06T20:47:38.092Z,3.14
2023-01-06T20:50:07.433Z,3.57
2023-01-06T20:52:34.995Z,4.23
2023-01-06T20:55:02.151Z,4.40
2023-01-06T20:57:29.212Z,4.29
2023-01-06T20:59:56.026Z,4.11
2023-01-06T21:02:23.018Z,3.88
2023-01-06T21:04:49.951Z,3.64
2023-01-06T21:07:16.998Z,3.41
2023-01-06T21:09:43.809Z,3.15
2023-01-06T21:12:10.903Z,3.54
2023-01-06T21:14:40.493Z,4.10
2023-01-06T21:17:07.682Z,4.12
2023-01-06T21:19:34.817Z,3.88
2023-01-06T21:22:01.783Z,3.58
2023-01-06T21:24:29.117Z,3.30
2023-01-06T21:26:56.068Z,3.11
2023-01-06T21:29:22.983Z,3.01
2023-01-06T21:31:49.926Z,3.53
2023-01-06T21:34:16.862Z,4.20
2023-01-06T21:36:43.902Z,4.30
2023-01-06T21:39:11.084Z,4.11
2023-01-06T21:41:56.813Z,3.78
2023-01-06T21:44:24.515Z,3.38
2023-01-06T21:46:51.419Z,3.04
2023-01-06T21:49:18.252Z,2.85
2023-01-06T21:51:48.858Z,3.29
2023-01-06T21:54:15.989Z,3.83
2023-01-06T21:56:42.853Z,3.90
2023-01-06T21:59:10.119Z,3.78
2023-01-06T22:01:37.308Z,3.52
2023-01-06T22:04:04.559Z,3.23
2023-01-06T22:06:31.366Z,3.01
2023-01-06T22:09:00.003Z,3.44
2023-01-06T22:11:27.699Z,4.03
2023-01-06T22:13:54.905Z,4.03
2023-01-06T22:16:21.877Z,3.86
2023-01-06T22:18:49.176Z,3.59
2023-01-06T22:21:16.476Z,3.32
2023-01-06T22:23:43.515Z,3.07
2023-01-06T22:26:10.534Z,3.45
2023-01-06T22:28:37.496Z,4.06
2023-01-06T22:31:04.921Z,4.18
2023-01-06T22:33:31.911Z,4.07
2023-01-06T22:35:59.063Z,3.86
2023-01-06T22:38:26.300Z,3.61
2023-01-06T22:40:53.450Z,3.45
2023-01-06T22:43:22.252Z,3.25
2023-01-06T22:45:56.805Z,3.70
2023-01-06T22:48:24.839Z,4.28
2023-01-06T22:51:02.333Z,4.30
2023-01-06T22:53:30.087Z,4.03
2023-01-06T22:55:57.834Z,3.82
2023-01-06T22:58:25.082Z,3.63
2023-01-06T23:00:52.111Z,3.36
2023-01-06T23:03:19.806Z,3.68
2023-01-06T23:06:05.208Z,4.26
2023-01-06T23:08:33.424Z,4.31
2023-01-06T23:11:06.087Z,4.12
2023-01-06T23:13:33.418Z,3.93
2023-01-06T23:16:02.048Z,3.75
2023-01-06T23:18:30.253Z,3.54
2023-01-06T23:21:01.821Z,3.38
2023-01-06T23:23:29.360Z,3.91
2023-01-06T23:26:03.679Z,4.55
2023-01-06T23:28:30.692Z,4.66
2023-01-06T23:31:08.728Z,4.44
2023-01-06T23:33:39.286Z,4.21
2023-01-06T23:36:07.427Z,3.96
2023-01-06T23:38:34.503Z,3.73
2023-01-06T23:41:11.884Z,3.56
2023-01-06T23:43:38.920Z,4.06
2023-01-06T23:46:07.667Z,4.64
2023-01-06T23:48:34.957Z,4.64
2023-01-06T23:51:02.248Z,4.48
2023-01-06T23:53:29.710Z,4.22
2023-01-06T23:55:58.252Z,3.87
2023-01-06T23:58:25.377Z,3.60
